sensor_id;sensor_type;location;lat;lon;timestamp;P1;durP1;ratioP1;P2;durP2;ratioP2
34984;SDS011;21190;58.750;17.004;2023-05-19T00:01:23;12.00;;;1.60;;
34984;SDS011;21190;58.750;17.004;2023-05-19T00:03:51;3.63;;;1.60;;
34984;SDS011;21190;58.750;17.004;2023-05-19T00:06:24;8.65;;;1.60;;
34984;SDS011;21190;58.750;17.004;2023-05-19T00:08:55;15.77;;;2.70;;
34984;SDS011;21190;58.750;17.004;2023-05-19T00:11:33;7.82;;;2.25;;
34984;SDS011;21190;58.750;17.004;2023-05-19T00:14:03;9.75;;;1.80;;
34984;SDS011;21190;58.750;17.004;2023-05-19T00:16:35;4.28;;;1.70;;
34984;SDS011;21190;58.750;17.004;2023-05-19T00:19:05;8.25;;;1.50;;
34984;SDS011;21190;58.750;17.004;2023-05-19T00:21:35;10.48;;;1.75;;
34984;SDS011;21190;58.750;17.004;2023-05-19T00:24:06;5.88;;;1.90;;
34984;SDS011;21190;58.750;17.004;2023-05-19T00:26:33;11.20;;;1.42;;
34984;SDS011;21190;58.750;17.004;2023-05-19T00:29:00;12.45;;;1.50;;
34984;SDS011;21190;58.750;17.004;2023-05-19T00:31:27;8.27;;;1.70;;
34984;SDS011;21190;58.750;17.004;2023-05-19T00:33:54;7.03;;;1.77;;
34984;SDS011;21190;58.750;17.004;2023-05-19T00:36:21;13.35;;;1.48;;
34984;SDS011;21190;58.750;17.004;2023-05-19T00:38:48;4.22;;;1.35;;
34984;SDS011;21190;58.750;17.004;2023-05-19T00:41:16;5.95;;;1.90;;
34984;SDS011;21190;58.750;17.004;2023-05-19T00:43:43;5.50;;;2.08;;
34984;SDS011;21190;58.750;17.004;2023-05-19T00:46:10;4.35;;;1.52;;
34984;SDS011;21190;58.750;17.004;2023-05-19T00:48:38;5.88;;;1.40;;
34984;SDS011;21190;58.750;17.004;2023-05-19T00:51:05;8.25;;;1.45;;
34984;SDS011;21190;58.750;17.004;2023-05-19T00:53:32;8.05;;;1.58;;
34984;SDS011;21190;58.750;17.004;2023-05-19T00:56:00;7.55;;;1.30;;
34984;SDS011;21190;58.750;17.004;2023-05-19T00:58:29;18.98;;;1.98;;
34984;SDS011;21190;58.750;17.004;2023-05-19T01:00:58;10.02;;;2.67;;
34984;SDS011;21190;58.750;17.004;2023-05-19T01:03:31;7.65;;;1.38;;
34984;SDS011;21190;58.750;17.004;2023-05-19T01:06:02;7.90;;;1.80;;
34984;SDS011;21190;58.750;17.004;2023-05-19T01:08:35;9.32;;;1.30;;
34984;SDS011;21190;58.750;17.004;2023-05-19T01:11:03;4.30;;;1.30;;
34984;SDS011;21190;58.750;17.004;2023-05-19T01:13:32;10.85;;;1.52;;
34984;SDS011;21190;58.750;17.004;2023-05-19T01:16:11;4.70;;;1.27;;
34984;SDS011;21190;58.750;17.004;2023-05-19T01:28:07;5.90;;;1.48;;
34984;SDS011;21190;58.750;17.004;2023-05-19T01:30:40;15.15;;;1.50;;
34984;SDS011;21190;58.750;17.004;2023-05-19T01:33:12;3.85;;;1.70;;
34984;SDS011;21190;58.750;17.004;2023-05-19T01:35:41;5.45;;;1.30;;
34984;SDS011;21190;58.750;17.004;2023-05-19T01:38:09;6.00;;;1.33;;
34984;SDS011;21190;58.750;17.004;2023-05-19T01:40:38;4.40;;;1.13;;
34984;SDS011;21190;58.750;17.004;2023-05-19T01:43:07;3.50;;;1.20;;
34984;SDS011;21190;58.750;17.004;2023-05-19T01:45:37;3.22;;;1.35;;
34984;SDS011;21190;58.750;17.004;2023-05-19T01:48:05;7.63;;;1.05;;
34984;SDS011;21190;58.750;17.004;2023-05-19T01:50:36;3.60;;;1.40;;
34984;SDS011;21190;58.750;17.004;2023-05-19T01:53:03;5.30;;;1.23;;
34984;SDS011;21190;58.750;17.004;2023-05-19T01:55:31;6.43;;;1.63;;
34984;SDS011;21190;58.750;17.004;2023-05-19T02:03:14;10.68;;;1.75;;
34984;SDS011;21190;58.750;17.004;2023-05-19T02:11:08;5.32;;;1.73;;
34984;SDS011;21190;58.750;17.004;2023-05-19T02:13:48;3.50;;;1.80;;
34984;SDS011;21190;58.750;17.004;2023-05-19T02:16:17;8.82;;;3.05;;
34984;SDS011;21190;58.750;17.004;2023-05-19T02:18:51;4.93;;;2.33;;
34984;SDS011;21190;58.750;17.004;2023-05-19T02:21:19;4.07;;;1.80;;
34984;SDS011;21190;58.750;17.004;2023-05-19T02:23:46;4.43;;;1.88;;
34984;SDS011;21190;58.750;17.004;2023-05-19T02:26:15;8.32;;;1.90;;
34984;SDS011;21190;58.750;17.004;2023-05-19T02:28:42;9.20;;;1.98;;
34984;SDS011;21190;58.750;17.004;2023-05-19T02:31:09;6.95;;;1.85;;
34984;SDS011;21190;58.750;17.004;2023-05-19T02:33:36;7.00;;;1.55;;
34984;SDS011;21190;58.750;17.004;2023-05-19T02:36:03;6.68;;;1.70;;
34984;SDS011;21190;58.750;17.004;2023-05-19T02:38:31;8.25;;;2.08;;
34984;SDS011;21190;58.750;17.004;2023-05-19T02:40:58;5.22;;;1.85;;
34984;SDS011;21190;58.750;17.004;2023-05-19T02:43:25;9.10;;;2.22;;
34984;SDS011;21190;58.750;17.004;2023-05-19T02:45:55;6.82;;;1.50;;
34984;SDS011;21190;58.750;17.004;2023-05-19T02:48:23;10.85;;;1.95;;
34984;SDS011;21190;58.750;17.004;2023-05-19T02:50:50;9.82;;;2.70;;
34984;SDS011;21190;58.750;17.004;2023-05-19T02:53:17;3.45;;;1.48;;
34984;SDS011;21190;58.750;17.004;2023-05-19T02:55:44;5.05;;;1.27;;
34984;SDS011;21190;58.750;17.004;2023-05-19T02:58:11;4.57;;;1.60;;
34984;SDS011;21190;58.750;17.004;2023-05-19T03:00:38;6.05;;;1.63;;
34984;SDS011;21190;58.750;17.004;2023-05-19T03:03:05;6.03;;;1.40;;
34984;SDS011;21190;58.750;17.004;2023-05-19T03:05:32;7.38;;;1.83;;
34984;SDS011;21190;58.750;17.004;2023-05-19T03:07:59;9.07;;;1.70;;
34984;SDS011;21190;58.750;17.004;2023-05-19T03:10:26;9.25;;;2.13;;
34984;SDS011;21190;58.750;17.004;2023-05-19T03:12:53;5.07;;;1.58;;
34984;SDS011;21190;58.750;17.004;2023-05-19T03:15:20;7.82;;;1.85;;
34984;SDS011;21190;58.750;17.004;2023-05-19T03:17:48;5.75;;;1.50;;
34984;SDS011;21190;58.750;17.004;2023-05-19T03:20:17;4.85;;;1.42;;
34984;SDS011;21190;58.750;17.004;2023-05-19T03:22:44;10.30;;;1.70;;
34984;SDS011;21190;58.750;17.004;2023-05-19T03:25:11;10.50;;;2.58;;
34984;SDS011;21190;58.750;17.004;2023-05-19T03:27:38;6.03;;;2.63;;
34984;SDS011;21190;58.750;17.004;2023-05-19T03:30:05;8.75;;;1.60;;
34984;SDS011;21190;58.750;17.004;2023-05-19T03:32:33;6.10;;;1.75;;
34984;SDS011;21190;58.750;17.004;2023-05-19T03:35:03;9.02;;;2.38;;
34984;SDS011;21190;58.750;17.004;2023-05-19T03:37:31;5.38;;;2.28;;
34984;SDS011;21190;58.750;17.004;2023-05-19T03:39:58;12.48;;;2.10;;
34984;SDS011;21190;58.750;17.004;2023-05-19T03:42:26;11.88;;;2.10;;
34984;SDS011;21190;58.750;17.004;2023-05-19T03:44:53;9.65;;;1.63;;
34984;SDS011;21190;58.750;17.004;2023-05-19T03:47:20;3.58;;;1.60;;
34984;SDS011;21190;58.750;17.004;2023-05-19T03:49:47;11.98;;;1.98;;
34984;SDS011;21190;58.750;17.004;2023-05-19T03:52:14;8.73;;;2.08;;
34984;SDS011;21190;58.750;17.004;2023-05-19T03:54:42;17.95;;;2.05;;
34984;SDS011;21190;58.750;17.004;2023-05-19T03:57:10;4.78;;;1.80;;
34984;SDS011;21190;58.750;17.004;2023-05-19T03:59:37;3.45;;;1.65;;
34984;SDS011;21190;58.750;17.004;2023-05-19T04:02:06;4.47;;;1.90;;
34984;SDS011;21190;58.750;17.004;2023-05-19T04:04:33;2.72;;;1.95;;
34984;SDS011;21190;58.750;17.004;2023-05-19T04:07:02;5.15;;;2.13;;
34984;SDS011;21190;58.750;17.004;2023-05-19T04:09:29;5.95;;;2.15;;
34984;SDS011;21190;58.750;17.004;2023-05-19T04:12:01;9.05;;;3.03;;
34984;SDS011;21190;58.750;17.004;2023-05-19T04:14:28;8.60;;;2.08;;
34984;SDS011;21190;58.750;17.004;2023-05-19T04:16:55;5.82;;;2.72;;
34984;SDS011;21190;58.750;17.004;2023-05-19T04:19:22;5.32;;;2.40;;
34984;SDS011;21190;58.750;17.004;2023-05-19T04:21:49;4.85;;;2.60;;
34984;SDS011;21190;58.750;17.004;2023-05-19T04:24:16;6.63;;;2.47;;
34984;SDS011;21190;58.750;17.004;2023-05-19T04:26:43;5.90;;;2.60;;
34984;SDS011;21190;58.750;17.004;2023-05-19T04:29:12;6.15;;;2.78;;
34984;SDS011;21190;58.750;17.004;2023-05-19T04:31:43;8.00;;;2.88;;
34984;SDS011;21190;58.750;17.004;2023-05-19T04:34:11;4.72;;;2.60;;
34984;SDS011;21190;58.750;17.004;2023-05-19T04:36:38;5.80;;;2.55;;
34984;SDS011;21190;58.750;17.004;2023-05-19T04:39:05;7.72;;;2.70;;
34984;SDS011;21190;58.750;17.004;2023-05-19T04:41:35;5.95;;;2.38;;
34984;SDS011;21190;58.750;17.004;2023-05-19T04:44:05;7.78;;;2.50;;
34984;SDS011;21190;58.750;17.004;2023-05-19T04:46:34;5.88;;;2.50;;
34984;SDS011;21190;58.750;17.004;2023-05-19T04:49:01;8.60;;;3.05;;
34984;SDS011;21190;58.750;17.004;2023-05-19T04:51:28;8.43;;;2.55;;
34984;SDS011;21190;58.750;17.004;2023-05-19T04:53:56;8.65;;;3.70;;
34984;SDS011;21190;58.750;17.004;2023-05-19T04:56:23;14.77;;;3.63;;
34984;SDS011;21190;58.750;17.004;2023-05-19T04:58:52;8.85;;;3.50;;
34984;SDS011;21190;58.750;17.004;2023-05-19T05:01:19;6.53;;;2.60;;
34984;SDS011;21190;58.750;17.004;2023-05-19T05:03:51;7.60;;;2.30;;
34984;SDS011;21190;58.750;17.004;2023-05-19T05:06:24;5.53;;;2.83;;
34984;SDS011;21190;58.750;17.004;2023-05-19T05:08:51;7.97;;;2.50;;
34984;SDS011;21190;58.750;17.004;2023-05-19T05:11:19;6.20;;;2.33;;
34984;SDS011;21190;58.750;17.004;2023-05-19T05:13:46;8.77;;;1.90;;
34984;SDS011;21190;58.750;17.004;2023-05-19T05:16:13;8.27;;;2.15;;
34984;SDS011;21190;58.750;17.004;2023-05-19T05:18:41;9.95;;;2.03;;
34984;SDS011;21190;58.750;17.004;2023-05-19T05:21:10;7.50;;;2.70;;
34984;SDS011;21190;58.750;17.004;2023-05-19T05:23:38;12.90;;;2.70;;
34984;SDS011;21190;58.750;17.004;2023-05-19T05:26:08;6.20;;;2.10;;
34984;SDS011;21190;58.750;17.004;2023-05-19T05:28:42;7.22;;;1.85;;
34984;SDS011;21190;58.750;17.004;2023-05-19T05:31:09;6.18;;;1.95;;
34984;SDS011;21190;58.750;17.004;2023-05-19T05:33:36;10.45;;;3.30;;
34984;SDS011;21190;58.750;17.004;2023-05-19T05:36:04;8.50;;;2.42;;
34984;SDS011;21190;58.750;17.004;2023-05-19T05:38:31;12.98;;;2.70;;
34984;SDS011;21190;58.750;17.004;2023-05-19T05:40:58;12.35;;;2.30;;
34984;SDS011;21190;58.750;17.004;2023-05-19T05:43:27;12.43;;;2.55;;
34984;SDS011;21190;58.750;17.004;2023-05-19T05:45:58;7.43;;;2.20;;
34984;SDS011;21190;58.750;17.004;2023-05-19T05:48:25;12.07;;;2.13;;
34984;SDS011;21190;58.750;17.004;2023-05-19T05:50:53;15.15;;;3.33;;
34984;SDS011;21190;58.750;17.004;2023-05-19T05:53:22;6.22;;;1.58;;
34984;SDS011;21190;58.750;17.004;2023-05-19T05:55:50;11.85;;;3.55;;
34984;SDS011;21190;58.750;17.004;2023-05-19T05:58:18;10.23;;;2.20;;
34984;SDS011;21190;58.750;17.004;2023-05-19T06:00:46;11.63;;;2.45;;
34984;SDS011;21190;58.750;17.004;2023-05-19T06:03:14;10.88;;;2.17;;
34984;SDS011;21190;58.750;17.004;2023-05-19T06:05:42;12.15;;;2.35;;
34984;SDS011;21190;58.750;17.004;2023-05-19T06:08:10;7.82;;;1.75;;
34984;SDS011;21190;58.750;17.004;2023-05-19T06:10:37;6.30;;;2.45;;
34984;SDS011;21190;58.750;17.004;2023-05-19T06:13:06;10.93;;;2.70;;
34984;SDS011;21190;58.750;17.004;2023-05-19T06:15:35;6.30;;;2.00;;
34984;SDS011;21190;58.750;17.004;2023-05-19T06:18:02;10.50;;;2.00;;
34984;SDS011;21190;58.750;17.004;2023-05-19T06:20:29;7.78;;;2.40;;
34984;SDS011;21190;58.750;17.004;2023-05-19T06:22:57;8.23;;;2.40;;
34984;SDS011;21190;58.750;17.004;2023-05-19T06:25:25;9.07;;;2.47;;
34984;SDS011;21190;58.750;17.004;2023-05-19T06:27:52;16.98;;;2.47;;
34984;SDS011;21190;58.750;17.004;2023-05-19T06:30:19;7.85;;;2.15;;
34984;SDS011;21190;58.750;17.004;2023-05-19T06:32:46;9.05;;;2.33;;
34984;SDS011;21190;58.750;17.004;2023-05-19T06:35:14;11.40;;;2.33;;
34984;SDS011;21190;58.750;17.004;2023-05-19T06:37:41;14.25;;;2.97;;
34984;SDS011;21190;58.750;17.004;2023-05-19T06:40:08;10.38;;;2.58;;
34984;SDS011;21190;58.750;17.004;2023-05-19T06:42:37;11.77;;;2.83;;
34984;SDS011;21190;58.750;17.004;2023-05-19T06:45:04;16.92;;;2.70;;
34984;SDS011;21190;58.750;17.004;2023-05-19T06:47:31;9.43;;;2.60;;
34984;SDS011;21190;58.750;17.004;2023-05-19T06:49:58;6.88;;;2.33;;
34984;SDS011;21190;58.750;17.004;2023-05-19T06:52:25;9.75;;;3.45;;
34984;SDS011;21190;58.750;17.004;2023-05-19T06:54:52;9.38;;;2.40;;
34984;SDS011;21190;58.750;17.004;2023-05-19T06:57:20;9.05;;;2.72;;
34984;SDS011;21190;58.750;17.004;2023-05-19T06:59:47;12.98;;;2.53;;
34984;SDS011;21190;58.750;17.004;2023-05-19T07:02:14;7.93;;;2.97;;
34984;SDS011;21190;58.750;17.004;2023-05-19T07:04:41;10.80;;;2.38;;
34984;SDS011;21190;58.750;17.004;2023-05-19T07:07:08;8.88;;;2.60;;
34984;SDS011;21190;58.750;17.004;2023-05-19T07:09:36;8.10;;;2.50;;
34984;SDS011;21190;58.750;17.004;2023-05-19T07:12:03;13.02;;;2.58;;
34984;SDS011;21190;58.750;17.004;2023-05-19T07:14:30;8.30;;;2.55;;
34984;SDS011;21190;58.750;17.004;2023-05-19T07:16:57;9.05;;;3.17;;
34984;SDS011;21190;58.750;17.004;2023-05-19T07:19:24;15.00;;;3.40;;
34984;SDS011;21190;58.750;17.004;2023-05-19T07:21:52;9.23;;;2.60;;
34984;SDS011;21190;58.750;17.004;2023-05-19T07:24:20;8.98;;;1.98;;
34984;SDS011;21190;58.750;17.004;2023-05-19T07:26:47;13.07;;;2.40;;
34984;SDS011;21190;58.750;17.004;2023-05-19T07:29:14;10.25;;;2.42;;
34984;SDS011;21190;58.750;17.004;2023-05-19T07:31:41;12.13;;;2.38;;
34984;SDS011;21190;58.750;17.004;2023-05-19T07:34:08;9.43;;;2.38;;
34984;SDS011;21190;58.750;17.004;2023-05-19T07:36:35;7.82;;;2.55;;
34984;SDS011;21190;58.750;17.004;2023-05-19T07:39:02;12.68;;;2.28;;
34984;SDS011;21190;58.750;17.004;2023-05-19T07:41:30;7.78;;;2.40;;
34984;SDS011;21190;58.750;17.004;2023-05-19T07:44:00;9.60;;;2.25;;
34984;SDS011;21190;58.750;17.004;2023-05-19T07:46:27;12.02;;;2.22;;
34984;SDS011;21190;58.750;17.004;2023-05-19T07:48:54;8.27;;;2.13;;
34984;SDS011;21190;58.750;17.004;2023-05-19T07:51:21;12.60;;;2.45;;
34984;SDS011;21190;58.750;17.004;2023-05-19T07:53:49;9.02;;;2.30;;
34984;SDS011;21190;58.750;17.004;2023-05-19T07:56:16;9.35;;;2.95;;
34984;SDS011;21190;58.750;17.004;2023-05-19T07:58:44;11.25;;;2.80;;
34984;SDS011;21190;58.750;17.004;2023-05-19T08:01:11;13.40;;;3.38;;
34984;SDS011;21190;58.750;17.004;2023-05-19T08:03:38;14.13;;;2.97;;
34984;SDS011;21190;58.750;17.004;2023-05-19T08:06:05;13.07;;;2.85;;
34984;SDS011;21190;58.750;17.004;2023-05-19T08:08:33;12.50;;;3.53;;
34984;SDS011;21190;58.750;17.004;2023-05-19T08:11:01;9.45;;;2.10;;
34984;SDS011;21190;58.750;17.004;2023-05-19T08:13:29;10.25;;;2.75;;
34984;SDS011;21190;58.750;17.004;2023-05-19T08:15:57;11.73;;;2.42;;
34984;SDS011;21190;58.750;17.004;2023-05-19T08:18:25;11.18;;;2.80;;
34984;SDS011;21190;58.750;17.004;2023-05-19T08:20:52;9.48;;;2.67;;
34984;SDS011;21190;58.750;17.004;2023-05-19T08:23:20;8.10;;;2.15;;
34984;SDS011;21190;58.750;17.004;2023-05-19T08:25:47;8.20;;;2.58;;
34984;SDS011;21190;58.750;17.004;2023-05-19T08:28:14;7.25;;;2.58;;
34984;SDS011;21190;58.750;17.004;2023-05-19T08:30:42;12.27;;;2.05;;
34984;SDS011;21190;58.750;17.004;2023-05-19T08:33:10;14.38;;;2.30;;
34984;SDS011;21190;58.750;17.004;2023-05-19T08:35:37;11.48;;;2.50;;
34984;SDS011;21190;58.750;17.004;2023-05-19T08:38:04;13.27;;;2.70;;
34984;SDS011;21190;58.750;17.004;2023-05-19T08:40:31;6.22;;;2.10;;
34984;SDS011;21190;58.750;17.004;2023-05-19T08:43:00;9.60;;;2.10;;
34984;SDS011;21190;58.750;17.004;2023-05-19T08:45:27;10.10;;;2.78;;
34984;SDS011;21190;58.750;17.004;2023-05-19T08:47:55;8.45;;;2.00;;
34984;SDS011;21190;58.750;17.004;2023-05-19T08:50:23;9.70;;;2.40;;
34984;SDS011;21190;58.750;17.004;2023-05-19T08:53:12;10.80;;;2.88;;
34984;SDS011;21190;58.750;17.004;2023-05-19T08:56:15;6.15;;;2.38;;
34984;SDS011;21190;58.750;17.004;2023-05-19T08:58:47;9.25;;;2.17;;
34984;SDS011;21190;58.750;17.004;2023-05-19T09:01:16;9.05;;;2.38;;
34984;SDS011;21190;58.750;17.004;2023-05-19T09:03:45;8.48;;;2.00;;
34984;SDS011;21190;58.750;17.004;2023-05-19T09:06:15;8.40;;;2.47;;
34984;SDS011;21190;58.750;17.004;2023-05-19T09:08:43;5.28;;;1.50;;
34984;SDS011;21190;58.750;17.004;2023-05-19T09:11:10;6.75;;;1.70;;
34984;SDS011;21190;58.750;17.004;2023-05-19T09:13:38;5.63;;;1.67;;
34984;SDS011;21190;58.750;17.004;2023-05-19T09:16:05;4.70;;;1.48;;
34984;SDS011;21190;58.750;17.004;2023-05-19T09:18:33;10.57;;;2.08;;
34984;SDS011;21190;58.750;17.004;2023-05-19T09:21:06;8.52;;;2.35;;
34984;SDS011;21190;58.750;17.004;2023-05-19T09:23:35;9.57;;;1.92;;
34984;SDS011;21190;58.750;17.004;2023-05-19T09:26:03;10.23;;;1.35;;
34984;SDS011;21190;58.750;17.004;2023-05-19T09:28:34;5.32;;;1.73;;
34984;SDS011;21190;58.750;17.004;2023-05-19T09:31:06;8.35;;;1.85;;
34984;SDS011;21190;58.750;17.004;2023-05-19T09:33:35;5.03;;;1.27;;
34984;SDS011;21190;58.750;17.004;2023-05-19T09:36:04;10.02;;;1.75;;
34984;SDS011;21190;58.750;17.004;2023-05-19T09:38:34;6.07;;;1.20;;
34984;SDS011;21190;58.750;17.004;2023-05-19T09:41:02;4.85;;;1.67;;
34984;SDS011;21190;58.750;17.004;2023-05-19T09:43:31;9.70;;;1.42;;
34984;SDS011;21190;58.750;17.004;2023-05-19T09:46:01;2.83;;;1.00;;
34984;SDS011;21190;58.750;17.004;2023-05-19T09:48:30;4.75;;;1.95;;
34984;SDS011;21190;58.750;17.004;2023-05-19T09:50:58;5.53;;;1.30;;
34984;SDS011;21190;58.750;17.004;2023-05-19T09:53:27;3.80;;;1.00;;
34984;SDS011;21190;58.750;17.004;2023-05-19T09:55:56;5.55;;;1.08;;
34984;SDS011;21190;58.750;17.004;2023-05-19T09:58:24;5.53;;;1.17;;
34984;SDS011;21190;58.750;17.004;2023-05-19T10:00:52;5.60;;;1.83;;
34984;SDS011;21190;58.750;17.004;2023-05-19T10:03:21;4.05;;;1.08;;
34984;SDS011;21190;58.750;17.004;2023-05-19T10:05:49;4.97;;;1.13;;
34984;SDS011;21190;58.750;17.004;2023-05-19T10:08:18;6.22;;;1.70;;
34984;SDS011;21190;58.750;17.004;2023-05-19T10:10:46;6.18;;;1.92;;
34984;SDS011;21190;58.750;17.004;2023-05-19T10:13:14;3.60;;;1.00;;
34984;SDS011;21190;58.750;17.004;2023-05-19T10:15:42;3.75;;;1.10;;
34984;SDS011;21190;58.750;17.004;2023-05-19T10:18:24;6.45;;;1.20;;
34984;SDS011;21190;58.750;17.004;2023-05-19T10:20:52;3.08;;;0.70;;
34984;SDS011;21190;58.750;17.004;2023-05-19T10:23:20;5.35;;;1.15;;
34984;SDS011;21190;58.750;17.004;2023-05-19T10:25:48;5.60;;;1.55;;
34984;SDS011;21190;58.750;17.004;2023-05-19T10:28:18;3.53;;;1.40;;
34984;SDS011;21190;58.750;17.004;2023-05-19T10:30:49;5.00;;;1.13;;
34984;SDS011;21190;58.750;17.004;2023-05-19T10:33:20;5.88;;;1.13;;
34984;SDS011;21190;58.750;17.004;2023-05-19T10:41:23;3.17;;;1.23;;
34984;SDS011;21190;58.750;17.004;2023-05-19T10:46:45;4.20;;;0.93;;
34984;SDS011;21190;58.750;17.004;2023-05-19T10:49:20;3.90;;;1.10;;
34984;SDS011;21190;58.750;17.004;2023-05-19T10:51:48;4.20;;;1.23;;
34984;SDS011;21190;58.750;17.004;2023-05-19T10:54:39;4.75;;;1.65;;
34984;SDS011;21190;58.750;17.004;2023-05-19T10:57:12;5.90;;;1.42;;
34984;SDS011;21190;58.750;17.004;2023-05-19T10:59:41;6.05;;;1.30;;
34984;SDS011;21190;58.750;17.004;2023-05-19T11:05:12;6.85;;;1.30;;
34984;SDS011;21190;58.750;17.004;2023-05-19T11:08:04;2.67;;;1.20;;
34984;SDS011;21190;58.750;17.004;2023-05-19T11:10:31;7.53;;;1.48;;
34984;SDS011;21190;58.750;17.004;2023-05-19T11:12:58;4.15;;;0.90;;
34984;SDS011;21190;58.750;17.004;2023-05-19T11:15:25;6.82;;;1.40;;
34984;SDS011;21190;58.750;17.004;2023-05-19T11:17:53;5.03;;;1.80;;
34984;SDS011;21190;58.750;17.004;2023-05-19T11:20:22;5.40;;;0.88;;
34984;SDS011;21190;58.750;17.004;2023-05-19T11:23:24;4.03;;;1.05;;
34984;SDS011;21190;58.750;17.004;2023-05-19T11:28:16;3.15;;;0.95;;
34984;SDS011;21190;58.750;17.004;2023-05-19T11:30:46;4.45;;;1.10;;
34984;SDS011;21190;58.750;17.004;2023-05-19T11:33:20;4.28;;;1.02;;
34984;SDS011;21190;58.750;17.004;2023-05-19T11:35:53;4.53;;;0.90;;
34984;SDS011;21190;58.750;17.004;2023-05-19T11:38:23;4.70;;;0.73;;
34984;SDS011;21190;58.750;17.004;2023-05-19T11:40:54;1.92;;;1.05;;
34984;SDS011;21190;58.750;17.004;2023-05-19T11:43:22;1.67;;;0.82;;
34984;SDS011;21190;58.750;17.004;2023-05-19T11:45:50;5.90;;;1.17;;
34984;SDS011;21190;58.750;17.004;2023-05-19T11:48:21;4.35;;;0.88;;
34984;SDS011;21190;58.750;17.004;2023-05-19T11:50:50;3.22;;;0.80;;
34984;SDS011;21190;58.750;17.004;2023-05-19T11:53:17;1.48;;;0.77;;
34984;SDS011;21190;58.750;17.004;2023-05-19T11:55:45;5.75;;;0.77;;
34984;SDS011;21190;58.750;17.004;2023-05-19T11:58:14;3.58;;;1.23;;
34984;SDS011;21190;58.750;17.004;2023-05-19T12:00:42;3.75;;;1.13;;
34984;SDS011;21190;58.750;17.004;2023-05-19T12:03:13;3.13;;;1.23;;
34984;SDS011;21190;58.750;17.004;2023-05-19T12:05:44;5.45;;;1.45;;
34984;SDS011;21190;58.750;17.004;2023-05-19T12:08:17;1.70;;;0.60;;
34984;SDS011;21190;58.750;17.004;2023-05-19T12:10:46;4.45;;;0.90;;
34984;SDS011;21190;58.750;17.004;2023-05-19T12:13:17;2.28;;;0.88;;
34984;SDS011;21190;58.750;17.004;2023-05-19T12:15:44;2.45;;;0.90;;
34984;SDS011;21190;58.750;17.004;2023-05-19T12:18:11;3.40;;;1.00;;
34984;SDS011;21190;58.750;17.004;2023-05-19T12:20:39;4.60;;;0.70;;
34984;SDS011;21190;58.750;17.004;2023-05-19T12:23:06;2.38;;;0.90;;
34984;SDS011;21190;58.750;17.004;2023-05-19T12:25:34;2.05;;;0.80;;
34984;SDS011;21190;58.750;17.004;2023-05-19T12:28:01;1.98;;;0.60;;
34984;SDS011;21190;58.750;17.004;2023-05-19T12:30:29;3.38;;;0.82;;
34984;SDS011;21190;58.750;17.004;2023-05-19T12:32:58;1.90;;;0.60;;
34984;SDS011;21190;58.750;17.004;2023-05-19T12:35:28;1.88;;;0.82;;
34984;SDS011;21190;58.750;17.004;2023-05-19T12:38:02;1.67;;;0.90;;
34984;SDS011;21190;58.750;17.004;2023-05-19T12:40:32;1.48;;;0.60;;
34984;SDS011;21190;58.750;17.004;2023-05-19T12:43:01;1.75;;;0.60;;
34984;SDS011;21190;58.750;17.004;2023-05-19T12:45:32;1.42;;;0.57;;
34984;SDS011;21190;58.750;17.004;2023-05-19T12:48:04;3.60;;;0.82;;
34984;SDS011;21190;58.750;17.004;2023-05-19T12:50:36;1.63;;;0.80;;
34984;SDS011;21190;58.750;17.004;2023-05-19T12:53:06;2.88;;;0.77;;
34984;SDS011;21190;58.750;17.004;2023-05-19T12:55:38;2.38;;;1.10;;
34984;SDS011;21190;58.750;17.004;2023-05-19T12:58:09;3.67;;;0.90;;
34984;SDS011;21190;58.750;17.004;2023-05-19T13:00:44;1.10;;;0.60;;
34984;SDS011;21190;58.750;17.004;2023-05-19T13:05:45;3.90;;;0.70;;
34984;SDS011;21190;58.750;17.004;2023-05-19T13:08:17;1.30;;;0.50;;
34984;SDS011;21190;58.750;17.004;2023-05-19T13:10:46;2.83;;;0.90;;
34984;SDS011;21190;58.750;17.004;2023-05-19T13:13:15;2.63;;;0.88;;
34984;SDS011;21190;58.750;17.004;2023-05-19T13:15:42;1.10;;;0.70;;
34984;SDS011;21190;58.750;17.004;2023-05-19T13:18:11;3.85;;;1.08;;
34984;SDS011;21190;58.750;17.004;2023-05-19T13:20:40;5.97;;;1.00;;
34984;SDS011;21190;58.750;17.004;2023-05-19T13:23:11;2.08;;;0.80;;
34984;SDS011;21190;58.750;17.004;2023-05-19T13:25:39;1.80;;;0.60;;
34984;SDS011;21190;58.750;17.004;2023-05-19T13:28:07;1.85;;;0.50;;
34984;SDS011;21190;58.750;17.004;2023-05-19T13:30:35;1.90;;;0.70;;
34984;SDS011;21190;58.750;17.004;2023-05-19T13:33:04;3.90;;;1.00;;
34984;SDS011;21190;58.750;17.004;2023-05-19T13:35:32;5.80;;;0.80;;
34984;SDS011;21190;58.750;17.004;2023-05-19T13:38:03;1.42;;;0.90;;
34984;SDS011;21190;58.750;17.004;2023-05-19T13:40:32;1.52;;;0.70;;
34984;SDS011;21190;58.750;17.004;2023-05-19T13:43:01;6.55;;;1.08;;
34984;SDS011;21190;58.750;17.004;2023-05-19T13:45:29;2.58;;;0.90;;
34984;SDS011;21190;58.750;17.004;2023-05-19T13:47:56;2.28;;;0.85;;
34984;SDS011;21190;58.750;17.004;2023-05-19T13:50:24;2.10;;;0.80;;
34984;SDS011;21190;58.750;17.004;2023-05-19T13:52:51;3.08;;;0.70;;
34984;SDS011;21190;58.750;17.004;2023-05-19T13:55:18;2.88;;;0.90;;
34984;SDS011;21190;58.750;17.004;2023-05-19T13:57:45;2.40;;;0.80;;
34984;SDS011;21190;58.750;17.004;2023-05-19T14:00:13;1.48;;;0.80;;
34984;SDS011;21190;58.750;17.004;2023-05-19T14:02:40;2.22;;;0.80;;
34984;SDS011;21190;58.750;17.004;2023-05-19T14:05:08;2.75;;;0.77;;
34984;SDS011;21190;58.750;17.004;2023-05-19T14:07:35;6.60;;;0.77;;
34984;SDS011;21190;58.750;17.004;2023-05-19T14:10:03;2.92;;;1.05;;
34984;SDS011;21190;58.750;17.004;2023-05-19T14:12:34;3.35;;;1.08;;
34984;SDS011;21190;58.750;17.004;2023-05-19T14:15:21;2.28;;;1.08;;
34984;SDS011;21190;58.750;17.004;2023-05-19T14:17:49;4.07;;;1.42;;
34984;SDS011;21190;58.750;17.004;2023-05-19T14:20:16;5.07;;;1.27;;
34984;SDS011;21190;58.750;17.004;2023-05-19T14:22:43;4.40;;;0.90;;
34984;SDS011;21190;58.750;17.004;2023-05-19T14:25:10;2.90;;;0.82;;
34984;SDS011;21190;58.750;17.004;2023-05-19T14:27:37;3.78;;;1.58;;
34984;SDS011;21190;58.750;17.004;2023-05-19T14:30:05;9.30;;;5.10;;
34984;SDS011;21190;58.750;17.004;2023-05-19T14:32:33;3.90;;;1.95;;
34984;SDS011;21190;58.750;17.004;2023-05-19T14:35:01;2.67;;;0.77;;
34984;SDS011;21190;58.750;17.004;2023-05-19T14:37:28;2.50;;;1.20;;
34984;SDS011;21190;58.750;17.004;2023-05-19T14:39:57;6.00;;;1.20;;
34984;SDS011;21190;58.750;17.004;2023-05-19T14:42:25;3.97;;;1.33;;
34984;SDS011;21190;58.750;17.004;2023-05-19T14:44:52;6.13;;;1.45;;
34984;SDS011;21190;58.750;17.004;2023-05-19T14:47:19;2.42;;;1.00;;
34984;SDS011;21190;58.750;17.004;2023-05-19T14:49:46;5.32;;;1.10;;
34984;SDS011;21190;58.750;17.004;2023-05-19T14:52:14;6.03;;;1.02;;
34984;SDS011;21190;58.750;17.004;2023-05-19T14:54:41;4.68;;;1.17;;
34984;SDS011;21190;58.750;17.004;2023-05-19T14:57:08;5.88;;;0.98;;
34984;SDS011;21190;58.750;17.004;2023-05-19T14:59:36;8.07;;;1.52;;
34984;SDS011;21190;58.750;17.004;2023-05-19T15:02:03;4.30;;;1.20;;
34984;SDS011;21190;58.750;17.004;2023-05-19T15:04:31;6.85;;;0.93;;
34984;SDS011;21190;58.750;17.004;2023-05-19T15:06:58;3.47;;;0.90;;
34984;SDS011;21190;58.750;17.004;2023-05-19T15:09:28;3.92;;;1.30;;
34984;SDS011;21190;58.750;17.004;2023-05-19T15:11:55;3.40;;;1.25;;
34984;SDS011;21190;58.750;17.004;2023-05-19T15:14:22;3.13;;;1.20;;
34984;SDS011;21190;58.750;17.004;2023-05-19T15:16:49;4.30;;;1.23;;